Terminal Aerodrome Forecast
Issued by NWS Cleveland, OH

Home | Current Version | Previous Version | Graphics & Text | Print | Product List | Glossary On
Versions: 1 2 3 4 5 6 7 8 9 10 11 12 13 14 15 16 17 18 19 20 21 22 23 24 25 26 27 28
096
FTUS41 KCLE 210759 AAC
TAFERI
TAF AMD
KERI 210759Z 2108/2206 VRB04KT 4SM BR SCT004 OVC012
      TEMPO 2108/2110 1/4SM FG OVC002
     FM211400 17010KT 4SM BR OVC015
     FM211800 18010KT P6SM BKN030=

USA.gov is the U.S. government's official web portal to all federal, state and local government web resources and services.